Time;durP1;ratioP1;P1;durP2;ratioP2;P2;SDS_P1;SDS_P2;PMS_P1;PMS_P2;Temp;Humidity;BMP_temperature;BMP_pressure;BME280_temperature;BME280_humidity;BME280_pressure;Samples;Min_cycle;Max_cycle;Signal;HPM_P1;HPM_P2
2021/12/24 00:01:15;;;;;;;3.63;2.40;;;8.50;99.90;;;;;;5074302;28;20176;-82
2021/12/24 00:03:41;;;;;;;5.27;2.40;;;8.60;99.90;;;;;;5057878;28;20167;-80
2021/12/24 00:06:12;;;;;;;4.03;2.37;;;8.60;99.90;;;;;;5041064;28;20603;-80
2021/12/24 00:08:39;;;;;;;4.90;2.80;;;8.50;99.90;;;;;;5074310;28;20215;-82
2021/12/24 00:11:08;;;;;;;3.60;2.40;;;8.40;99.90;;;;;;5074634;28;20168;-79
2021/12/24 00:13:40;;;;;;;5.27;2.93;;;8.50;99.90;;;;;;5074263;28;20173;-81
2021/12/24 00:16:16;;;;;;;4.40;2.70;;;8.30;99.90;;;;;;5041763;28;20694;-82
2021/12/24 00:18:48;;;;;;;4.80;2.67;;;8.20;99.90;;;;;;5057376;28;20172;-81
2021/12/24 00:37:31;;;;;;;2.70;2.10;;;8.70;99.90;;;;;;5059293;28;20214;-80
2021/12/24 00:42:45;;;;;;;3.30;2.07;;;8.50;99.90;;;;;;5073878;28;20168;-81
2021/12/24 00:45:16;;;;;;;4.17;2.50;;;8.40;99.90;;;;;;5056947;28;20238;-80
2021/12/24 00:47:43;;;;;;;4.57;2.67;;;8.20;99.90;;;;;;5073603;28;20164;-82
2021/12/24 00:50:13;;;;;;;3.50;2.23;;;8.30;99.90;;;;;;5056907;28;20180;-80
2021/12/24 00:52:54;;;;;;;2.93;2.00;;;8.00;99.90;;;;;;5057748;28;20619;-81
2021/12/24 00:55:23;;;;;;;3.17;1.90;;;8.00;99.90;;;;;;5075067;28;20165;-81
2021/12/24 00:57:53;;;;;;;2.60;2.00;;;8.00;99.90;;;;;;5040677;28;20193;-83
2021/12/24 01:00:34;;;;;;;4.33;2.10;;;8.00;99.90;;;;;;5056917;28;20208;-82
2021/12/24 01:03:03;;;;;;;2.50;2.10;;;7.90;99.90;;;;;;5039712;28;20259;-81
2021/12/24 01:05:31;;;;;;;3.30;1.90;;;7.90;99.90;;;;;;5072388;28;20193;-80
2021/12/24 01:07:56;;;;;;;2.70;1.90;;;7.90;99.90;;;;;;5073381;28;20172;-79
2021/12/24 01:10:25;;;;;;;2.97;1.90;;;7.90;99.90;;;;;;5073494;28;20181;-83
2021/12/24 01:12:51;;;;;;;2.93;1.90;;;7.90;99.90;;;;;;5073160;28;20164;-82
2021/12/24 01:15:18;;;;;;;2.40;1.80;;;8.00;99.90;;;;;;5073239;28;20683;-79
2021/12/24 01:21:11;;;;;;;2.70;1.97;;;7.90;99.90;;;;;;5074437;28;20196;-79
2021/12/24 01:25:40;;;;;;;5.20;2.10;;;8.00;99.90;;;;;;5072153;28;20176;-83
2021/12/24 01:44:27;;;;;;;2.37;1.73;;;8.30;99.90;;;;;;5050011;28;20184;-80
2021/12/24 01:46:58;;;;;;;2.27;1.97;;;8.40;99.90;;;;;;5067689;28;20180;-79
2021/12/24 01:49:25;;;;;;;3.77;2.00;;;8.40;99.90;;;;;;5050628;28;20173;-82
2021/12/24 01:51:54;;;;;;;3.40;2.20;;;8.50;99.90;;;;;;5050986;28;20177;-79
2021/12/24 01:54:20;;;;;;;2.97;1.90;;;8.30;99.90;;;;;;5033841;28;20573;-82
2021/12/24 01:56:47;;;;;;;3.50;1.87;;;8.30;99.90;;;;;;5054263;28;20191;-82
2021/12/24 01:59:13;;;;;;;2.30;1.80;;;8.10;99.90;;;;;;5053992;28;20200;-80
2021/12/24 02:01:39;;;;;;;3.80;1.80;;;8.10;99.90;;;;;;5037236;28;20180;-83
2021/12/24 02:04:06;;;;;;;2.07;1.53;;;8.00;99.90;;;;;;5053549;28;20161;-82
2021/12/24 02:06:33;;;;;;;3.90;2.23;;;8.00;99.90;;;;;;5071031;28;20180;-82
2021/12/24 02:08:59;;;;;;;4.17;1.87;;;8.10;99.90;;;;;;5070174;28;20177;-82
2021/12/24 02:11:25;;;;;;;2.00;1.50;;;8.10;99.90;;;;;;5070356;28;20235;-80
2021/12/24 02:13:52;;;;;;;2.37;1.90;;;8.10;99.90;;;;;;5053767;28;20184;-79
2021/12/24 02:16:39;;;;;;;3.17;2.00;;;8.10;99.90;;;;;;5053246;28;20683;-82
2021/12/24 02:29:58;;;;;;;3.80;2.00;;;8.30;99.90;;;;;;5071135;28;20251;-82
2021/12/24 02:32:23;;;;;;;3.17;1.83;;;8.30;99.90;;;;;;5036304;28;20267;-80
2021/12/24 02:34:49;;;;;;;3.20;1.87;;;8.30;99.90;;;;;;5069407;28;20211;-80
2021/12/24 02:37:16;;;;;;;2.57;1.70;;;8.30;99.90;;;;;;5069527;28;20173;-82
2021/12/24 02:39:42;;;;;;;2.00;1.47;;;8.50;99.90;;;;;;5052941;28;20206;-80
2021/12/24 02:42:14;;;;;;;3.27;2.00;;;8.60;99.90;;;;;;5036245;28;20651;-81
2021/12/24 02:44:40;;;;;;;2.27;1.63;;;8.60;99.90;;;;;;5036054;28;20648;-83
2021/12/24 02:47:13;;;;;;;2.60;1.93;;;8.70;99.90;;;;;;5071126;28;20202;-82
2021/12/24 02:55:00;;;;;;;2.17;1.60;;;8.60;99.90;;;;;;5055264;28;20267;-80
2021/12/24 02:57:28;;;;;;;3.13;1.63;;;8.60;99.90;;;;;;5035491;28;20278;-80
2021/12/24 03:00:00;;;;;;;3.07;1.50;;;8.50;99.90;;;;;;5069408;28;20270;-81
2021/12/24 03:02:27;;;;;;;2.67;1.50;;;8.50;99.90;;;;;;5053029;28;20169;-82
2021/12/24 03:04:53;;;;;;;3.37;1.80;;;8.40;99.90;;;;;;5069528;28;20172;-83
2021/12/24 03:07:19;;;;;;;2.67;1.60;;;8.80;99.90;;;;;;5069490;28;20182;-80
2021/12/24 03:09:45;;;;;;;3.87;1.80;;;8.50;99.90;;;;;;5069556;28;20184;-82
2021/12/24 03:12:11;;;;;;;2.47;1.73;;;8.60;99.90;;;;;;5069661;28;20172;-81
2021/12/24 03:14:37;;;;;;;2.13;1.60;;;8.60;99.90;;;;;;5068972;28;20192;-82
2021/12/24 03:17:09;;;;;;;2.87;1.60;;;8.70;99.90;;;;;;5035611;28;20191;-83
2021/12/24 03:19:34;;;;;;;2.50;1.80;;;8.70;99.90;;;;;;5050750;28;20492;-82
2021/12/24 03:22:13;;;;;;;1.97;1.37;;;8.60;99.90;;;;;;5078671;28;20179;-82
2021/12/24 03:24:39;;;;;;;1.93;1.57;;;8.60;99.90;;;;;;5090943;28;20164;-82
2021/12/24 03:27:07;;;;;;;1.97;1.63;;;8.60;99.90;;;;;;5053220;28;20181;-80
2021/12/24 03:29:34;;;;;;;3.47;1.83;;;8.50;99.90;;;;;;5037793;28;20176;-82
2021/12/24 03:32:00;;;;;;;1.83;1.60;;;8.60;99.90;;;;;;5056573;28;20176;-81
2021/12/24 03:34:26;;;;;;;3.50;1.40;;;8.50;99.90;;;;;;5056160;28;20180;-82
2021/12/24 03:36:53;;;;;;;2.30;1.60;;;8.60;99.90;;;;;;5039613;28;20184;-82
2021/12/24 03:39:19;;;;;;;3.60;1.53;;;8.60;99.90;;;;;;5056268;28;20204;-80
2021/12/24 03:41:46;;;;;;;3.23;1.40;;;8.70;99.90;;;;;;5073243;28;20172;-81
2021/12/24 03:44:15;;;;;;;2.20;1.30;;;8.80;99.90;;;;;;5039872;28;20646;-80
2021/12/24 03:46:59;;;;;;;1.57;1.47;;;8.80;99.90;;;;;;5040056;28;20263;-79
2021/12/24 03:49:54;;;;;;;2.67;1.50;;;8.80;99.90;;;;;;5073060;28;20173;-82
2021/12/24 03:54:57;;;;;;;1.50;1.30;;;8.80;99.90;;;;;;5072856;28;20176;-80
2021/12/24 03:57:40;;;;;;;2.23;1.60;;;8.80;99.90;;;;;;5055887;28;20196;-81
2021/12/24 04:00:11;;;;;;;1.90;1.37;;;8.80;99.90;;;;;;5072407;28;20565;-82
2021/12/24 04:02:37;;;;;;;3.17;1.70;;;8.80;99.90;;;;;;5039726;28;20176;-82
2021/12/24 04:05:03;;;;;;;1.60;1.50;;;8.70;99.90;;;;;;5038733;28;20180;-81
2021/12/24 04:07:29;;;;;;;3.37;1.50;;;8.70;99.90;;;;;;5038675;28;20169;-83
2021/12/24 04:10:04;;;;;;;2.00;1.50;;;8.70;99.90;;;;;;5022590;28;20177;-81
2021/12/24 04:12:31;;;;;;;1.87;1.50;;;8.70;99.90;;;;;;5057554;28;20683;-81
2021/12/24 04:14:57;;;;;;;1.63;1.30;;;8.70;99.90;;;;;;5039073;28;20200;-82
2021/12/24 04:17:23;;;;;;;1.93;1.47;;;8.70;99.90;;;;;;5072232;28;20230;-81
2021/12/24 04:25:19;;;;;;;2.93;1.40;;;8.80;99.90;;;;;;5072466;28;20169;-80
2021/12/24 04:27:45;;;;;;;1.87;1.30;;;8.90;99.90;;;;;;5055571;28;20251;-83
2021/12/24 04:30:17;;;;;;;2.40;1.77;;;9.00;99.90;;;;;;5038547;28;20188;-80
2021/12/24 04:35:46;;;;;;;3.40;1.77;;;9.10;99.90;;;;;;5072916;28;20173;-81
2021/12/24 04:38:27;;;;;;;5.33;1.97;;;9.10;99.90;;;;;;5072068;28;20578;-80
2021/12/24 04:51:55;;;;;;;2.77;1.60;;;9.00;99.90;;;;;;5043892;28;20187;-80
2021/12/24 05:02:48;;;;;;;2.40;1.50;;;9.00;99.90;;;;;;5071629;28;20168;-80
2021/12/24 05:10:11;;;;;;;2.53;1.70;;;9.20;99.90;;;;;;5071449;28;20188;-81
2021/12/24 05:12:37;;;;;;;2.03;1.57;;;9.10;99.90;;;;;;5054284;28;20234;-83
2021/12/24 05:15:07;;;;;;;3.07;1.57;;;9.10;99.90;;;;;;5037836;28;20245;-80
2021/12/24 05:18:30;;;;;;;2.17;1.70;;;9.20;99.90;;;;;;5043385;28;20205;-80
2021/12/24 05:23:04;;;;;;;3.17;1.73;;;9.40;99.90;;;;;;5091630;28;20642;-82
2021/12/24 05:25:30;;;;;;;1.60;1.40;;;9.50;99.90;;;;;;5074487;28;20172;-81
2021/12/24 05:27:55;;;;;;;2.43;1.37;;;9.60;99.90;;;;;;5074230;28;20203;-80
2021/12/24 05:30:23;;;;;;;2.20;1.60;;;9.50;99.90;;;;;;5041398;28;20182;-80
2021/12/24 05:32:49;;;;;;;1.83;1.47;;;9.60;99.90;;;;;;5074327;28;20194;-82
2021/12/24 05:35:15;;;;;;;1.90;1.40;;;9.60;99.90;;;;;;5062867;28;20172;-81
2021/12/24 05:37:41;;;;;;;1.50;1.27;;;9.60;99.90;;;;;;5037604;28;20271;-80
2021/12/24 05:40:08;;;;;;;2.47;1.60;;;9.70;99.90;;;;;;5070733;28;20668;-82
2021/12/24 05:42:34;;;;;;;2.00;1.67;;;9.60;99.90;;;;;;5054337;28;20160;-80
2021/12/24 05:45:04;;;;;;;2.37;1.60;;;9.60;99.90;;;;;;5053822;28;20513;-82
2021/12/24 05:47:31;;;;;;;3.10;1.70;;;9.60;99.90;;;;;;5054334;28;20203;-82
2021/12/24 05:49:58;;;;;;;3.80;2.70;;;9.50;99.90;;;;;;5072028;28;20517;-80
2021/12/24 05:52:24;;;;;;;4.10;2.80;;;9.50;99.90;;;;;;5070042;28;20533;-81
2021/12/24 05:54:50;;;;;;;2.70;1.80;;;9.40;99.90;;;;;;5053873;28;20180;-81
2021/12/24 05:57:16;;;;;;;2.17;1.50;;;9.40;99.90;;;;;;5053877;28;20188;-81
2021/12/24 05:59:42;;;;;;;1.93;1.50;;;9.40;99.90;;;;;;5053452;28;20604;-82
2021/12/24 06:02:07;;;;;;;1.40;1.30;;;9.30;99.90;;;;;;5053968;28;20172;-80
2021/12/24 06:04:33;;;;;;;2.20;1.50;;;9.50;99.90;;;;;;5053738;28;20312;-82
2021/12/24 06:06:59;;;;;;;3.87;1.70;;;9.30;99.90;;;;;;5071618;28;20172;-81
2021/12/24 06:09:25;;;;;;;3.00;1.67;;;9.30;99.90;;;;;;5070476;28;20550;-82
2021/12/24 06:11:51;;;;;;;3.00;2.20;;;9.40;99.90;;;;;;5052938;28;20176;-82
2021/12/24 06:14:18;;;;;;;3.83;2.00;;;9.50;99.90;;;;;;5069881;28;20687;-82
2021/12/24 06:16:50;;;;;;;3.30;1.87;;;9.50;99.90;;;;;;5069669;28;20181;-80
2021/12/24 06:19:17;;;;;;;2.10;1.53;;;9.50;99.90;;;;;;5069946;28;20275;-81
2021/12/24 06:21:44;;;;;;;2.03;1.53;;;9.50;99.90;;;;;;5053368;28;20169;-82
2021/12/24 06:24:12;;;;;;;6.27;3.00;;;9.40;99.90;;;;;;5070172;28;20176;-82
2021/12/24 06:26:38;;;;;;;6.63;4.07;;;9.60;99.90;;;;;;5053947;28;20172;-82
2021/12/24 06:29:04;;;;;;;2.43;1.93;;;9.50;99.90;;;;;;5071360;28;20181;-82
2021/12/24 06:31:30;;;;;;;2.27;1.60;;;9.70;99.90;;;;;;5036456;28;20179;-84
2021/12/24 06:33:56;;;;;;;4.00;3.03;;;9.80;99.90;;;;;;5071183;28;20541;-82
2021/12/24 06:36:22;;;;;;;4.43;2.30;;;9.90;99.90;;;;;;5052097;28;20686;-81
2021/12/24 06:38:48;;;;;;;5.87;2.37;;;9.80;99.90;;;;;;5069312;28;20275;-81
2021/12/24 06:41:13;;;;;;;4.60;2.93;;;9.90;99.90;;;;;;5070045;28;20176;-81
2021/12/24 06:43:39;;;;;;;4.67;3.60;;;10.00;99.90;;;;;;5071293;28;20589;-82
2021/12/24 06:46:11;;;;;;;2.53;1.87;;;10.00;99.90;;;;;;5053532;28;20177;-80
2021/12/24 06:48:37;;;;;;;3.73;2.70;;;9.90;99.90;;;;;;5070265;28;20710;-82
2021/12/24 06:51:04;;;;;;;3.40;1.90;;;10.00;99.90;;;;;;5069795;28;20263;-80
2021/12/24 06:53:29;;;;;;;5.40;1.83;;;9.90;99.90;;;;;;5069474;28;20233;-82
2021/12/24 06:55:55;;;;;;;3.77;1.80;;;9.90;99.90;;;;;;5069543;28;20188;-82
2021/12/24 06:58:21;;;;;;;2.63;1.60;;;9.90;99.90;;;;;;5052561;28;20196;-81
2021/12/24 07:00:47;;;;;;;2.53;1.80;;;10.00;99.90;;;;;;5068062;28;20747;-80
2021/12/24 07:03:13;;;;;;;2.13;1.70;;;10.00;99.90;;;;;;5051096;28;20313;-82
2021/12/24 07:05:39;;;;;;;3.47;1.93;;;10.00;99.90;;;;;;5068904;28;20231;-82
2021/12/24 07:08:04;;;;;;;3.20;1.90;;;10.00;99.90;;;;;;5070695;28;20175;-82
2021/12/24 07:10:30;;;;;;;3.73;1.93;;;10.10;99.90;;;;;;5035795;28;20180;-81
2021/12/24 07:12:57;;;;;;;2.90;2.30;;;10.00;99.90;;;;;;5052495;28;20175;-81
2021/12/24 07:15:23;;;;;;;4.33;1.80;;;10.00;99.90;;;;;;5069008;28;20195;-82
2021/12/24 07:17:49;;;;;;;2.10;1.60;;;10.00;99.90;;;;;;5054593;28;20173;-83
2021/12/24 07:20:15;;;;;;;1.97;1.60;;;10.00;99.90;;;;;;5063676;28;20694;-81
2021/12/24 07:22:41;;;;;;;2.63;2.13;;;9.90;99.90;;;;;;5066032;28;20208;-83
2021/12/24 07:25:08;;;;;;;3.30;1.87;;;9.90;99.90;;;;;;5067244;28;20173;-82
2021/12/24 07:27:35;;;;;;;2.30;1.90;;;10.00;99.90;;;;;;5065078;28;20324;-81
2021/12/24 07:30:03;;;;;;;3.00;2.20;;;9.90;99.90;;;;;;5068508;28;20184;-82
2021/12/24 07:32:31;;;;;;;2.20;1.83;;;9.90;99.90;;;;;;5050379;28;20642;-80
2021/12/24 07:34:57;;;;;;;2.80;1.77;;;9.90;99.90;;;;;;5059663;28;20616;-80
2021/12/24 07:37:22;;;;;;;5.10;2.20;;;9.90;99.90;;;;;;5050818;28;20242;-81
2021/12/24 07:39:48;;;;;;;3.60;2.30;;;9.90;99.90;;;;;;5082192;28;20290;-80
2021/12/24 07:42:14;;;;;;;3.33;2.73;;;9.80;99.90;;;;;;5080147;28;20392;-81
2021/12/24 07:44:40;;;;;;;1.97;1.60;;;9.80;99.90;;;;;;5046908;28;20173;-81
2021/12/24 07:47:14;;;;;;;3.80;1.93;;;9.90;99.90;;;;;;5063253;28;20180;-82
2021/12/24 07:49:42;;;;;;;3.20;1.93;;;9.80;99.90;;;;;;5063730;28;20525;-81
2021/12/24 07:52:09;;;;;;;3.57;2.10;;;9.80;99.90;;;;;;5066998;28;20559;-84
2021/12/24 07:54:44;;;;;;;2.57;1.87;;;9.80;99.90;;;;;;5068830;28;20667;-80
2021/12/24 07:57:12;;;;;;;1.97;1.53;;;9.90;99.90;;;;;;5051957;28;20233;-82
2021/12/24 07:59:40;;;;;;;3.83;1.90;;;10.10;99.90;;;;;;5085267;28;20201;-83
2021/12/24 08:02:23;;;;;;;2.53;1.90;;;10.20;99.90;;;;;;5056006;28;20604;-82
2021/12/24 08:04:51;;;;;;;2.57;1.90;;;10.00;99.90;;;;;;5050772;28;20169;-84
2021/12/24 08:07:20;;;;;;;3.43;1.53;;;9.80;99.90;;;;;;5052600;28;20589;-85
2021/12/24 08:09:47;;;;;;;2.13;1.77;;;9.90;99.90;;;;;;5053287;28;20180;-83
2021/12/24 08:12:13;;;;;;;4.70;2.03;;;9.80;99.90;;;;;;5067295;28;20275;-84
2021/12/24 08:14:39;;;;;;;3.20;2.07;;;9.80;99.90;;;;;;5069229;28;20267;-85
2021/12/24 08:17:05;;;;;;;3.13;2.20;;;9.70;99.90;;;;;;5056423;28;20641;-85
2021/12/24 08:19:31;;;;;;;3.43;2.43;;;9.80;99.90;;;;;;5072952;28;20982;-86
2021/12/24 08:21:59;;;;;;;2.47;1.80;;;9.70;99.90;;;;;;5056356;28;20180;-84
2021/12/24 08:24:25;;;;;;;2.33;1.90;;;9.70;99.90;;;;;;5077383;28;20173;-81
2021/12/24 08:26:51;;;;;;;3.27;1.70;;;9.90;99.90;;;;;;5067577;28;20610;-83
2021/12/24 08:29:17;;;;;;;2.37;1.60;;;9.80;99.90;;;;;;5084052;28;20180;-82
2021/12/24 08:31:44;;;;;;;2.73;1.93;;;9.90;99.90;;;;;;5088192;28;20180;-83
2021/12/24 08:34:10;;;;;;;2.17;1.73;;;9.90;99.90;;;;;;5065295;28;20212;-82
2021/12/24 08:36:37;;;;;;;1.97;1.67;;;10.00;99.90;;;;;;5038984;28;20293;-86
2021/12/24 08:39:04;;;;;;;3.17;1.90;;;9.90;99.90;;;;;;5066672;28;20276;-83
2021/12/24 08:41:32;;;;;;;4.07;1.90;;;9.90;99.90;;;;;;5055827;28;20215;-85
2021/12/24 08:43:57;;;;;;;2.40;1.50;;;10.00;99.90;;;;;;5072947;28;20496;-84
2021/12/24 08:46:23;;;;;;;4.23;1.60;;;10.10;99.90;;;;;;5071692;28;20184;-83
2021/12/24 08:48:49;;;;;;;3.40;1.90;;;10.10;99.90;;;;;;5052791;28;20266;-83
2021/12/24 08:51:15;;;;;;;3.13;1.50;;;10.00;99.90;;;;;;5072268;28;20571;-82
2021/12/24 08:53:41;;;;;;;4.60;1.67;;;10.10;99.90;;;;;;5073630;28;20200;-86
2021/12/24 08:56:06;;;;;;;3.17;1.57;;;10.00;99.90;;;;;;5035114;28;20185;-86
2021/12/24 08:58:35;;;;;;;3.27;1.93;;;10.00;99.90;;;;;;5074313;28;20199;-84
2021/12/24 09:01:04;;;;;;;4.10;1.80;;;10.00;99.90;;;;;;5064334;28;20223;-85
2021/12/24 09:03:31;;;;;;;2.10;1.50;;;10.00;99.90;;;;;;5039694;28;20180;-85
2021/12/24 09:05:56;;;;;;;4.17;2.87;;;10.10;99.90;;;;;;5070557;28;20537;-84
2021/12/24 09:08:22;;;;;;;2.13;1.70;;;10.10;99.90;;;;;;5066989;28;20169;-83
2021/12/24 09:10:48;;;;;;;3.07;1.60;;;10.10;99.90;;;;;;5063187;28;20273;-83
2021/12/24 09:13:14;;;;;;;5.20;2.10;;;10.20;99.90;;;;;;5071342;28;20678;-83
2021/12/24 09:15:40;;;;;;;3.87;1.60;;;10.10;99.90;;;;;;5055243;28;20204;-82
2021/12/24 09:18:07;;;;;;;2.07;1.60;;;10.20;99.90;;;;;;5037561;28;20188;-81
2021/12/24 09:20:41;;;;;;;2.17;1.57;;;10.10;99.90;;;;;;5053610;28;20253;-83
2021/12/24 09:23:08;;;;;;;2.73;1.90;;;10.10;99.90;;;;;;5059574;28;20193;-88
2021/12/24 09:25:34;;;;;;;2.03;1.43;;;10.20;99.90;;;;;;5060737;28;20180;-83
2021/12/24 09:28:02;;;;;;;2.77;1.60;;;10.10;99.90;;;;;;5070526;28;20667;-90
2021/12/24 09:30:29;;;;;;;5.17;2.57;;;10.00;99.90;;;;;;5054860;28;20184;-89
2021/12/24 09:32:55;;;;;;;3.57;2.00;;;10.00;99.90;;;;;;5085952;28;20184;-78
2021/12/24 09:35:22;;;;;;;2.00;1.60;;;10.10;99.90;;;;;;5069653;28;20184;-79
2021/12/24 09:37:49;;;;;;;4.07;2.23;;;10.30;99.90;;;;;;5069614;28;20267;-77
2021/12/24 09:40:16;;;;;;;3.83;2.47;;;10.20;99.90;;;;;;5071206;28;20215;-81
2021/12/24 09:42:43;;;;;;;2.57;1.80;;;10.20;99.90;;;;;;5085253;28;20185;-78
2021/12/24 09:45:10;;;;;;;5.03;1.87;;;10.20;99.90;;;;;;5069389;28;20367;-74
2021/12/24 09:47:36;;;;;;;2.30;1.43;;;10.20;99.90;;;;;;5070800;28;20196;-76
2021/12/24 09:50:03;;;;;;;3.50;1.93;;;10.10;99.90;;;;;;5068862;28;20184;-74
2021/12/24 09:52:32;;;;;;;2.70;1.90;;;10.10;99.90;;;;;;5082398;28;20218;-83
2021/12/24 09:55:07;;;;;;;2.40;1.73;;;10.10;99.90;;;;;;5033994;28;20189;-80
2021/12/24 09:57:32;;;;;;;3.53;1.70;;;10.10;99.90;;;;;;5051334;28;20206;-78
2021/12/24 09:59:58;;;;;;;2.70;1.97;;;10.00;99.90;;;;;;5062829;28;20657;-81
2021/12/24 10:02:30;;;;;;;3.20;1.83;;;10.10;99.90;;;;;;5051262;28;20549;-81
2021/12/24 10:04:56;;;;;;;3.40;1.70;;;10.10;99.90;;;;;;5062313;28;20207;-81
2021/12/24 10:07:25;;;;;;;2.53;1.73;;;10.10;99.90;;;;;;5064947;28;20177;-81
2021/12/24 10:09:51;;;;;;;4.03;2.10;;;10.20;99.90;;;;;;5029444;28;20715;-80
2021/12/24 10:12:23;;;;;;;2.23;1.70;;;10.10;99.90;;;;;;5040751;28;20558;-80
2021/12/24 10:14:50;;;;;;;1.90;1.60;;;10.00;99.90;;;;;;5068043;28;20208;-80
2021/12/24 10:17:20;;;;;;;2.43;1.83;;;10.10;99.90;;;;;;5052681;28;20181;-80
2021/12/24 10:19:48;;;;;;;2.80;1.77;;;10.10;99.90;;;;;;5070093;28;20215;-85
2021/12/24 10:22:15;;;;;;;2.00;1.80;;;10.10;99.90;;;;;;5061157;28;20204;-80
2021/12/24 10:24:41;;;;;;;1.77;1.60;;;10.00;99.90;;;;;;5069169;28;20192;-86
2021/12/24 10:27:08;;;;;;;3.47;2.00;;;10.00;99.90;;;;;;5069796;28;20184;-84
2021/12/24 10:29:41;;;;;;;2.83;1.90;;;9.90;99.90;;;;;;5085951;28;20212;-80
2021/12/24 10:32:18;;;;;;;3.27;1.90;;;10.00;99.90;;;;;;5069568;28;20200;-80
2021/12/24 10:34:45;;;;;;;4.47;2.83;;;9.90;99.90;;;;;;5051306;28;20242;-83
2021/12/24 10:37:26;;;;;;;3.53;2.47;;;10.00;99.90;;;;;;5069175;28;20200;-84
2021/12/24 10:39:59;;;;;;;1.67;1.53;;;10.00;99.90;;;;;;5051990;28;20620;-81
2021/12/24 10:42:29;;;;;;;3.23;1.80;;;10.00;99.90;;;;;;5062164;28;20279;-83
2021/12/24 10:44:56;;;;;;;2.60;2.00;;;10.00;99.90;;;;;;5067193;28;20306;-82
2021/12/24 10:47:27;;;;;;;2.27;1.60;;;10.00;99.90;;;;;;5068296;28;20176;-83
2021/12/24 10:50:33;;;;;;;4.60;1.80;;;10.00;99.90;;;;;;5066797;28;20184;-82
2021/12/24 10:53:17;;;;;;;3.30;1.60;;;10.00;99.90;;;;;;5018316;28;20204;-84
2021/12/24 10:55:48;;;;;;;2.57;1.40;;;10.00;99.90;;;;;;5069263;28;20184;-86
2021/12/24 10:58:17;;;;;;;3.07;1.67;;;10.00;99.90;;;;;;5084030;28;20199;-83
2021/12/24 11:00:50;;;;;;;4.50;2.17;;;10.00;99.90;;;;;;5069310;28;20211;-81
2021/12/24 11:03:22;;;;;;;4.07;1.50;;;10.10;99.90;;;;;;5060773;28;20215;-81
2021/12/24 11:06:05;;;;;;;2.70;1.90;;;10.10;99.90;;;;;;5062370;28;20267;-82
2021/12/24 11:08:31;;;;;;;3.20;1.80;;;10.10;99.90;;;;;;5063784;28;20181;-79
2021/12/24 11:10:59;;;;;;;2.17;1.60;;;10.10;99.90;;;;;;5062993;28;20824;-78
2021/12/24 11:13:30;;;;;;;4.53;2.37;;;10.20;99.90;;;;;;5035767;28;20258;-88
2021/12/24 11:15:59;;;;;;;3.93;1.60;;;10.20;99.90;;;;;;5063675;28;20201;-85
2021/12/24 11:18:28;;;;;;;4.10;1.80;;;10.30;99.90;;;;;;5068811;28;20196;-77
2021/12/24 11:21:06;;;;;;;1.97;1.47;;;10.20;99.90;;;;;;5084856;28;20211;-79
2021/12/24 11:23:38;;;;;;;2.10;1.53;;;10.20;99.90;;;;;;5035511;28;20180;-83
2021/12/24 11:26:11;;;;;;;2.63;1.50;;;10.20;99.90;;;;;;5050384;28;20188;-85
2021/12/24 11:28:40;;;;;;;1.40;1.30;;;10.20;99.90;;;;;;5085702;28;20645;-86
2021/12/24 11:31:14;;;;;;;3.57;1.50;;;10.10;99.90;;;;;;5082567;28;20187;-79
2021/12/24 11:33:42;;;;;;;1.30;1.20;;;10.10;99.90;;;;;;5069998;28;20180;-79
2021/12/24 11:36:10;;;;;;;1.80;1.50;;;10.10;99.90;;;;;;5067006;28;20553;-87
2021/12/24 11:39:00;;;;;;;2.23;1.00;;;10.20;99.90;;;;;;5068718;28;20180;-85
2021/12/24 11:41:30;;;;;;;1.60;1.30;;;10.30;99.90;;;;;;5081571;28;20177;-78
2021/12/24 11:43:57;;;;;;;2.20;1.37;;;10.30;99.90;;;;;;5064234;28;20267;-84
2021/12/24 11:46:25;;;;;;;1.77;1.63;;;10.20;99.90;;;;;;5062738;28;20193;-86
2021/12/24 11:48:53;;;;;;;2.63;1.70;;;10.10;99.90;;;;;;5064496;28;20184;-86
2021/12/24 11:51:30;;;;;;;2.30;1.40;;;10.20;99.90;;;;;;5071255;28;20551;-88
2021/12/24 11:54:03;;;;;;;1.77;1.30;;;10.20;99.90;;;;;;5072426;28;20184;-78
2021/12/24 11:56:45;;;;;;;1.20;1.00;;;10.20;99.90;;;;;;5060225;28;20184;-77
2021/12/24 11:59:12;;;;;;;1.77;1.17;;;10.30;99.90;;;;;;5072250;28;20200;-78
2021/12/24 12:01:42;;;;;;;1.23;0.93;;;10.30;99.90;;;;;;5070646;28;20168;-85
2021/12/24 12:04:19;;;;;;;2.47;1.70;;;10.20;99.90;;;;;;5068010;28;20161;-82
2021/12/24 12:06:45;;;;;;;4.47;2.80;;;10.30;99.90;;;;;;5069820;28;20176;-86
2021/12/24 12:09:12;;;;;;;1.90;1.53;;;10.30;99.90;;;;;;5049831;28;20596;-76
2021/12/24 12:11:41;;;;;;;2.50;1.50;;;10.40;99.90;;;;;;5051250;28;20177;-85
2021/12/24 12:14:14;;;;;;;1.17;1.07;;;10.60;99.90;;;;;;5052038;28;20207;-79
2021/12/24 12:16:42;;;;;;;3.50;1.10;;;10.70;99.90;;;;;;5068902;28;20172;-77
2021/12/24 12:19:45;;;;;;;2.17;1.10;;;10.60;99.90;;;;;;5072974;28;20229;-91
2021/12/24 12:24:57;;;;;;;1.07;0.93;;;10.50;99.90;;;;;;5071334;28;20179;-77
2021/12/24 12:28:06;;;;;;;1.40;1.00;;;10.50;99.90;;;;;;5072864;28;20176;-88
2021/12/24 12:30:39;;;;;;;1.20;1.00;;;10.50;99.90;;;;;;5002977;28;20185;-79
2021/12/24 12:33:29;;;;;;;1.63;0.80;;;10.70;99.90;;;;;;4996418;28;20183;-88
2021/12/24 12:36:02;;;;;;;1.10;0.80;;;10.60;99.90;;;;;;5048824;28;20563;-88
2021/12/24 12:38:35;;;;;;;1.00;0.90;;;10.60;99.90;;;;;;5056525;28;20182;-82
2021/12/24 12:41:21;;;;;;;0.90;0.80;;;10.60;99.90;;;;;;5073565;28;20242;-83
2021/12/24 12:43:50;;;;;;;1.47;1.00;;;10.60;99.90;;;;;;5075923;28;20661;-78
2021/12/24 12:46:37;;;;;;;1.07;0.70;;;10.60;99.90;;;;;;5055549;28;20546;-76
2021/12/24 12:49:06;;;;;;;0.80;0.70;;;10.60;99.90;;;;;;5070976;28;20264;-77
2021/12/24 12:51:47;;;;;;;1.10;0.70;;;10.70;99.90;;;;;;5071431;28;20177;-86
2021/12/24 12:54:48;;;;;;;1.50;0.93;;;10.70;99.90;;;;;;5085874;28;20176;-85
2021/12/24 12:57:21;;;;;;;1.20;0.70;;;10.60;99.90;;;;;;5055268;28;20688;-87
2021/12/24 13:00:17;;;;;;;1.63;1.00;;;10.80;99.90;;;;;;5054392;28;20640;-77
2021/12/24 13:03:01;;;;;;;1.77;1.00;;;10.70;99.90;;;;;;5079528;28;20169;-76
2021/12/24 13:05:32;;;;;;;2.40;1.20;;;10.90;99.90;;;;;;5070299;28;20200;-76
2021/12/24 13:08:16;;;;;;;1.17;0.90;;;10.80;99.90;;;;;;5070259;28;20172;-87
2021/12/24 13:10:57;;;;;;;1.97;1.00;;;10.90;99.90;;;;;;5056094;28;20275;-78
2021/12/24 13:13:23;;;;;;;1.97;0.80;;;10.90;99.90;;;;;;5071213;28;20180;-87
2021/12/24 13:15:49;;;;;;;1.03;0.70;;;10.90;99.90;;;;;;5068776;28;20753;-77
2021/12/24 13:18:26;;;;;;;1.57;0.90;;;10.80;99.90;;;;;;5067221;28;20184;-87
2021/12/24 13:22:27;;;;;;;1.47;0.87;;;10.80;99.90;;;;;;5069861;28;20238;-87
2021/12/24 13:23:42;;;;;;;3.83;2.47;;;10.80;99.90;;;;;;5063392;28;20549;-77
2021/12/24 13:26:19;;;;;;;2.13;1.00;;;10.70;99.90;;;;;;5070436;28;20635;-86
2021/12/24 13:28:54;;;;;;;1.23;0.80;;;10.60;99.90;;;;;;5086114;28;20192;-86
2021/12/24 13:31:20;;;;;;;0.73;0.60;;;10.60;99.90;;;;;;5070882;28;20225;-77
2021/12/24 13:33:47;;;;;;;1.07;0.77;;;10.60;99.90;;;;;;5070555;28;20699;-76
2021/12/24 13:36:13;;;;;;;1.70;0.63;;;10.70;99.90;;;;;;5070531;28;20187;-77
2021/12/24 13:38:38;;;;;;;1.30;0.80;;;10.90;99.90;;;;;;5067637;28;20180;-76
2021/12/24 13:41:04;;;;;;;1.10;0.70;;;10.70;99.90;;;;;;5033005;28;20208;-87
2021/12/24 13:43:36;;;;;;;1.63;0.70;;;10.70;99.90;;;;;;5071696;28;20199;-87
2021/12/24 13:46:07;;;;;;;0.67;0.60;;;10.70;99.90;;;;;;5048279;28;20587;-77
2021/12/24 13:48:47;;;;;;;1.27;0.70;;;10.60;99.90;;;;;;5069364;28;20247;-78
2021/12/24 13:56:48;;;;;;;0.60;0.60;;;10.70;99.90;;;;;;5073862;28;20177;-86
2021/12/24 13:59:20;;;;;;;1.70;0.70;;;10.80;99.90;;;;;;5071071;28;20195;-78
2021/12/24 14:01:46;;;;;;;1.00;0.80;;;10.80;99.90;;;;;;5083785;28;20253;-87
2021/12/24 14:04:16;;;;;;;0.60;0.47;;;10.70;99.90;;;;;;5070459;28;20193;-79
2021/12/24 14:06:49;;;;;;;0.70;0.70;;;10.60;99.90;;;;;;5052345;28;20539;-78
2021/12/24 14:09:24;;;;;;;1.53;0.70;;;10.60;99.90;;;;;;5063916;28;20191;-88
2021/12/24 14:11:53;;;;;;;0.80;0.70;;;10.60;99.90;;;;;;5064804;28;20183;-80
2021/12/24 14:14:27;;;;;;;0.90;0.87;;;10.60;99.90;;;;;;5052897;28;20197;-77
2021/12/24 14:19:44;;;;;;;1.00;0.90;;;10.80;99.90;;;;;;5085690;28;20206;-76
2021/12/24 14:22:16;;;;;;;0.93;0.70;;;10.70;99.90;;;;;;5066608;28;20658;-76
2021/12/24 14:25:02;;;;;;;0.93;0.83;;;10.70;99.90;;;;;;5070629;28;20177;-82
2021/12/24 14:27:31;;;;;;;1.10;1.00;;;10.70;99.90;;;;;;5053793;28;20175;-85
2021/12/24 14:30:12;;;;;;;2.97;0.93;;;10.70;99.90;;;;;;5071324;28;20249;-86
2021/12/24 14:32:42;;;;;;;1.80;1.00;;;10.80;99.90;;;;;;5071461;28;20204;-85
2021/12/24 14:35:27;;;;;;;1.47;0.80;;;10.70;99.90;;;;;;5069930;28;20181;-75
2021/12/24 14:38:13;;;;;;;0.90;0.70;;;10.80;99.90;;;;;;5038019;28;20176;-86
2021/12/24 14:40:39;;;;;;;0.97;0.90;;;10.70;99.90;;;;;;5050115;28;20201;-83
2021/12/24 14:43:15;;;;;;;1.03;0.87;;;10.70;99.90;;;;;;5051187;28;20184;-76
2021/12/24 14:45:44;;;;;;;2.27;1.10;;;10.70;99.90;;;;;;5068976;28;20680;-77
2021/12/24 14:48:21;;;;;;;2.20;1.00;;;10.80;99.90;;;;;;5071104;28;20185;-85
2021/12/24 14:51:04;;;;;;;1.13;1.03;;;10.60;99.90;;;;;;5060260;28;20210;-91
2021/12/24 14:53:30;;;;;;;0.97;0.77;;;10.80;99.90;;;;;;5057539;28;20198;-78